createdAt,value
2022-10-11T00:02:05.153Z,81.06
2022-10-11T00:04:31.898Z,81.32
2022-10-11T00:06:58.640Z,81.55
2022-10-11T00:09:25.385Z,81.74
2022-10-11T00:11:55.801Z,81.68
2022-10-11T00:14:24.081Z,81.76
2022-10-11T00:16:50.866Z,81.40
2022-10-11T00:19:18.051Z,81.40
2022-10-11T00:21:46.037Z,81.37
2022-10-11T00:24:13.729Z,80.93
2022-10-11T00:26:45.703Z,81.20
2022-10-11T00:29:13.627Z,81.01
2022-10-11T00:31:40.621Z,80.90
2022-10-11T00:34:08.458Z,80.47
2022-10-11T00:36:35.309Z,80.17
2022-10-11T00:39:02.349Z,79.84
2022-10-11T00:41:29.106Z,79.56
2022-10-11T00:44:20.004Z,79.85
2022-10-11T00:46:56.030Z,79.76
2022-10-11T00:49:34.322Z,79.47
2022-10-11T00:52:07.622Z,79.07
2022-10-11T00:54:38.044Z,79.21
2022-10-11T00:57:10.427Z,78.94
2022-10-11T00:59:41.665Z,78.71
2022-10-11T01:02:11.637Z,78.57
2022-10-11T01:04:39.522Z,78.54
2022-10-11T01:07:06.257Z,78.55
2022-10-11T01:09:33.921Z,78.67
2022-10-11T01:12:03.852Z,78.63
2022-10-11T01:14:43.440Z,78.55
2022-10-11T01:17:29.999Z,78.51
2022-10-11T01:20:22.509Z,78.36
2022-10-11T01:23:11.717Z,78.96
2022-10-11T01:25:54.330Z,79.56
2022-10-11T01:28:38.225Z,81.14
2022-10-11T01:31:27.171Z,82.67
2022-10-11T01:34:09.292Z,83.65
2022-10-11T01:36:42.732Z,83.47
2022-10-11T01:39:13.588Z,83.80
2022-10-11T01:41:46.240Z,83.76
2022-10-11T01:44:13.821Z,83.44
2022-10-11T01:46:41.025Z,82.32
2022-10-11T01:49:07.911Z,81.94
2022-10-11T01:51:38.227Z,81.49
2022-10-11T01:54:12.056Z,80.55
2022-10-11T01:56:56.790Z,80.08
2022-10-11T01:59:46.758Z,80.15
2022-10-11T02:02:16.298Z,79.91
2022-10-11T02:04:52.958Z,79.81
2022-10-11T02:07:37.529Z,79.44
2022-10-11T02:10:04.452Z,79.05
2022-10-11T02:12:38.076Z,78.40
2022-10-11T02:15:09.438Z,77.64
2022-10-11T02:17:43.836Z,77.19
2022-10-11T02:20:14.573Z,76.69
2022-10-11T02:22:45.588Z,76.12
2022-10-11T02:25:19.923Z,76.00
2022-10-11T02:27:48.805Z,75.75
2022-10-11T02:30:16.720Z,75.43
2022-10-11T02:32:46.598Z,75.39
2022-10-11T02:35:14.120Z,75.12
2022-10-11T02:37:51.737Z,74.86
2022-10-11T02:40:19.042Z,74.38
2022-10-11T02:42:53.834Z,74.08
2022-10-11T02:45:27.742Z,73.56
2022-10-11T02:47:55.097Z,73.26
2022-10-11T02:50:22.828Z,72.84
2022-10-11T02:52:49.685Z,72.65
2022-10-11T02:55:16.638Z,72.09
2022-10-11T02:57:44.193Z,71.53
2022-10-11T03:00:11.769Z,71.47
2022-10-11T03:02:38.477Z,71.04
2022-10-11T03:05:05.636Z,71.17
2022-10-11T03:07:32.393Z,70.89
2022-10-11T03:09:59.119Z,70.72
2022-10-11T03:12:25.943Z,70.46
2022-10-11T03:14:53.214Z,70.61
2022-10-11T03:17:35.490Z,70.43
2022-10-11T03:20:02.737Z,70.54
2022-10-11T03:22:29.549Z,70.31
2022-10-11T03:25:00.962Z,70.05
2022-10-11T03:27:30.364Z,69.55
2022-10-11T03:29:57.985Z,69.62
2022-10-11T03:32:25.230Z,69.49
2022-10-11T03:34:51.954Z,69.39
2022-10-11T03:37:19.045Z,69.29
2022-10-11T03:39:46.048Z,69.29
2022-10-11T03:42:13.758Z,69.05
2022-10-11T03:44:42.168Z,68.84
2022-10-11T03:47:09.601Z,68.55
2022-10-11T03:49:41.199Z,68.79
2022-10-11T03:52:11.320Z,68.93
2022-10-11T03:54:38.091Z,68.96
2022-10-11T03:57:04.873Z,69.19
2022-10-11T03:59:31.691Z,69.37
2022-10-11T04:01:58.524Z,69.17
2022-10-11T04:04:25.305Z,69.16
2022-10-11T04:07:17.408Z,69.12
2022-10-11T05:45:57.727Z,79.78
2022-10-11T05:51:20.392Z,80.24
2022-10-11T05:53:47.505Z,79.99
2022-10-11T05:56:24.900Z,80.03
2022-10-11T05:58:58.677Z,80.39
2022-10-11T06:02:39.046Z,81.18
2022-10-11T06:05:21.043Z,81.72
2022-10-11T06:12:29.179Z,82.27
2022-10-11T06:15:13.304Z,82.33
2022-10-11T06:34:38.848Z,83.53
2022-10-11T06:40:33.536Z,84.41
2022-10-11T06:47:09.695Z,84.31
2022-10-11T06:50:40.659Z,84.22
2022-10-11T06:54:14.374Z,84.26
2022-10-11T06:56:32.488Z,84.05
2022-10-11T06:59:21.940Z,83.39
2022-10-11T07:02:42.541Z,83.80
2022-10-11T07:05:25.297Z,83.91
2022-10-11T07:07:57.097Z,83.79
2022-10-11T07:18:58.755Z,82.47
2022-10-11T07:22:44.967Z,81.74
2022-10-11T07:50:53.095Z,73.61
2022-10-11T07:53:23.468Z,72.27
2022-10-11T07:55:50.707Z,71.25
2022-10-11T07:58:17.792Z,71.00
2022-10-11T08:02:31.973Z,70.85
2022-10-11T08:03:54.654Z,69.68
2022-10-11T08:06:30.884Z,68.29
2022-10-11T08:09:10.660Z,66.89
2022-10-11T08:11:38.474Z,66.15
2022-10-11T08:14:28.432Z,65.08
2022-10-11T08:16:56.145Z,64.56
2022-10-11T08:19:23.200Z,63.55
2022-10-11T08:21:50.077Z,62.60
2022-10-11T08:24:21.530Z,62.43
2022-10-11T08:26:49.255Z,62.37
2022-10-11T08:29:16.792Z,63.20
2022-10-11T08:31:44.937Z,63.55
2022-10-11T08:34:13.402Z,63.02
2022-10-11T08:36:43.564Z,61.63
2022-10-11T08:41:23.722Z,61.01
2022-10-11T08:42:39.538Z,60.43
2022-10-11T08:45:19.389Z,60.76
2022-10-11T08:47:47.609Z,59.44
2022-10-11T08:50:23.893Z,58.00
2022-10-11T08:53:07.825Z,56.27
2022-10-11T08:56:03.851Z,57.34
2022-10-11T08:58:59.386Z,57.35
2022-10-11T09:01:54.712Z,56.66
2022-10-11T09:04:22.043Z,58.45
2022-10-11T09:07:08.225Z,58.13
2022-10-11T09:10:03.231Z,57.96
2022-10-11T09:12:51.272Z,58.24
2022-10-11T09:15:41.065Z,58.60
2022-10-11T09:18:42.050Z,58.76
2022-10-11T09:25:25.271Z,58.23
2022-10-11T09:29:18.275Z,58.68
2022-10-11T09:31:23.153Z,58.75
2022-10-11T09:34:21.831Z,58.92
2022-10-11T09:36:59.621Z,59.43
2022-10-11T09:39:56.392Z,59.36
2022-10-11T09:42:44.870Z,59.63
2022-10-11T09:45:35.564Z,60.34
2022-10-11T09:48:44.545Z,61.19
2022-10-11T09:51:28.540Z,60.71
2022-10-11T09:54:44.497Z,59.36
2022-10-11T09:58:04.149Z,58.64
2022-10-11T10:00:33.944Z,59.18
2022-10-11T10:03:07.215Z,59.85
2022-10-11T10:05:40.178Z,60.15
2022-10-11T10:08:27.061Z,60.67
2022-10-11T10:11:01.776Z,61.94
2022-10-11T10:13:55.135Z,62.34
2022-10-11T10:16:30.664Z,61.72
2022-10-11T10:19:24.009Z,62.36
2022-10-11T10:21:56.783Z,63.10
2022-10-11T10:24:50.590Z,63.05
2022-10-11T10:27:31.060Z,63.27
2022-10-11T10:33:44.372Z,63.41
2022-10-11T10:36:21.009Z,63.64
2022-10-11T10:39:07.723Z,63.41
2022-10-11T10:41:38.312Z,63.45
2022-10-11T10:44:05.994Z,63.58
2022-10-11T10:50:25.364Z,63.74
2022-10-11T10:53:18.332Z,63.95
2022-10-11T10:56:36.217Z,63.87
2022-10-11T11:04:48.179Z,64.11
2022-10-11T11:06:57.339Z,64.03
2022-10-11T11:10:00.761Z,63.53
2022-10-11T11:12:41.501Z,62.15
2022-10-11T11:15:13.330Z,61.87
2022-10-11T11:17:57.814Z,61.98
2022-10-11T11:20:32.062Z,62.81
2022-10-11T11:23:27.441Z,63.12
2022-10-11T11:26:06.918Z,62.14
2022-10-11T11:28:57.031Z,62.06
2022-10-11T11:31:49.112Z,62.53
2022-10-11T11:34:42.506Z,62.25
2022-10-11T11:37:28.975Z,61.95
2022-10-11T11:40:16.633Z,62.13
2022-10-11T11:42:57.293Z,61.60
2022-10-11T11:45:28.563Z,60.92
2022-10-11T11:48:03.692Z,61.10
2022-10-11T11:50:41.076Z,60.82
2022-10-11T11:53:16.338Z,60.97
2022-10-11T11:56:04.560Z,61.27
2022-10-11T11:58:48.080Z,60.82
2022-10-11T12:01:31.140Z,60.92
2022-10-11T12:04:05.508Z,60.93
2022-10-11T12:06:57.953Z,60.93
2022-10-11T12:09:25.176Z,61.27
2022-10-11T12:11:57.690Z,61.96
2022-10-11T12:14:51.282Z,61.75
2022-10-11T12:17:25.505Z,59.56
2022-10-11T12:20:41.913Z,57.05
2022-10-11T12:23:36.195Z,54.91
2022-10-11T12:26:34.654Z,51.76
2022-10-11T12:29:20.803Z,50.02
2022-10-11T12:32:04.420Z,47.92
2022-10-11T12:34:33.703Z,47.28
2022-10-11T12:37:38.824Z,46.03
2022-10-11T12:40:59.766Z,43.96
2022-10-11T12:43:47.859Z,42.86
2022-10-11T12:47:10.131Z,42.14
2022-10-11T12:50:42.314Z,41.34
2022-10-11T12:53:27.001Z,41.77
2022-10-11T12:56:25.350Z,42.82
2022-10-11T12:59:03.345Z,44.71
2022-10-11T13:05:31.531Z,47.00
2022-10-11T13:08:27.860Z,48.19
2022-10-11T13:11:05.209Z,48.55
2022-10-11T13:17:00.560Z,49.68
2022-10-11T13:19:30.091Z,50.36
2022-10-11T13:22:36.497Z,50.90
2022-10-11T13:25:54.345Z,48.55
2022-10-11T13:28:24.417Z,45.17
2022-10-11T13:30:57.759Z,42.57
2022-10-11T13:33:34.050Z,40.66
2022-10-11T13:36:04.262Z,39.47
2022-10-11T13:38:34.074Z,38.05
2022-10-11T13:41:06.402Z,35.77
2022-10-11T13:43:35.106Z,35.21
2022-10-11T13:46:06.986Z,34.89
2022-10-11T13:48:41.053Z,35.66
2022-10-11T13:51:09.668Z,35.09
2022-10-11T13:53:36.440Z,34.73
2022-10-11T13:56:07.839Z,35.24
2022-10-11T13:58:40.537Z,35.06
2022-10-11T14:01:20.980Z,36.32
2022-10-11T14:03:54.885Z,38.07
2022-10-11T14:06:21.795Z,39.42
2022-10-11T14:08:54.639Z,40.48
2022-10-11T14:11:39.150Z,40.58
2022-10-11T14:14:30.257Z,39.89
2022-10-11T14:17:04.347Z,38.69
2022-10-11T14:19:31.296Z,37.65
2022-10-11T14:21:58.217Z,37.37
2022-10-11T14:24:24.993Z,38.25
2022-10-11T14:26:54.368Z,37.08
2022-10-11T14:29:24.056Z,37.22
2022-10-11T14:31:52.102Z,36.88
2022-10-11T14:34:21.722Z,35.26
2022-10-11T14:36:49.207Z,35.33
2022-10-11T14:39:19.304Z,34.10
2022-10-11T14:41:47.340Z,33.31
2022-10-11T14:44:14.944Z,31.84
2022-10-11T14:46:42.717Z,31.66
2022-10-11T14:49:15.007Z,31.78
2022-10-11T14:51:41.973Z,31.74
2022-10-11T14:54:09.443Z,31.85
2022-10-11T14:56:36.196Z,32.23
2022-10-11T14:59:02.997Z,32.69
2022-10-11T15:01:29.905Z,33.61
2022-10-11T15:03:56.972Z,34.09
2022-10-11T15:06:29.022Z,35.11
2022-10-11T15:08:56.117Z,35.81
2022-10-11T15:11:24.174Z,36.82
2022-10-11T15:13:50.904Z,37.85
2022-10-11T15:16:20.814Z,39.36
2022-10-11T15:18:51.014Z,41.31
2022-10-11T15:21:19.549Z,40.81
2022-10-11T15:23:47.338Z,41.43
2022-10-11T15:26:18.383Z,42.67
2022-10-11T15:28:46.085Z,42.93
2022-10-11T15:31:13.283Z,43.84
2022-10-11T15:33:40.871Z,46.02
2022-10-11T15:36:12.320Z,47.11
2022-10-11T15:38:39.303Z,47.14
2022-10-11T15:41:06.363Z,47.89
2022-10-11T15:43:33.599Z,49.11
2022-10-11T15:46:02.435Z,50.24
2022-10-11T15:48:29.462Z,50.51
2022-10-11T15:50:56.509Z,52.04
2022-10-11T15:53:28.495Z,53.70
2022-10-11T15:55:57.806Z,54.36
2022-10-11T15:58:26.599Z,55.33
2022-10-11T16:00:55.393Z,56.52
2022-10-11T16:03:24.768Z,57.43
2022-10-11T16:05:52.640Z,58.27
2022-10-11T16:08:19.937Z,59.72
2022-10-11T16:10:46.716Z,60.69
2022-10-11T16:13:13.527Z,61.02
2022-10-11T16:15:42.269Z,61.88
2022-10-11T16:18:12.424Z,61.74
2022-10-11T16:20:41.036Z,61.32
2022-10-11T16:23:08.090Z,61.56
2022-10-11T16:25:35.878Z,61.68
2022-10-11T16:28:03.582Z,61.61
2022-10-11T16:30:30.446Z,61.95
2022-10-11T16:32:57.264Z,62.46
2022-10-11T16:35:25.483Z,62.88
2022-10-11T16:37:54.617Z,63.51
2022-10-11T16:40:22.164Z,64.10
2022-10-11T16:42:48.986Z,64.51
2022-10-11T16:45:16.480Z,64.89
2022-10-11T16:47:44.648Z,65.35
2022-10-11T16:50:12.311Z,66.34
2022-10-11T16:52:39.054Z,66.93
2022-10-11T16:55:06.404Z,67.84
2022-10-11T16:57:33.167Z,67.87
2022-10-11T16:59:59.873Z,68.01
2022-10-11T17:02:32.128Z,68.44
2022-10-11T17:04:59.507Z,68.62
2022-10-11T17:07:26.687Z,68.64
2022-10-11T17:09:53.429Z,68.87
2022-10-11T17:12:23.487Z,68.97
2022-10-11T17:14:51.110Z,69.26
2022-10-11T17:17:19.080Z,69.30
2022-10-11T17:19:47.513Z,69.51
2022-10-11T17:22:18.918Z,69.86
2022-10-11T17:24:46.537Z,69.81
2022-10-11T17:27:13.720Z,70.04
2022-10-11T17:29:40.662Z,70.26
2022-10-11T17:32:07.594Z,70.56
2022-10-11T17:34:34.556Z,70.64
2022-10-11T17:37:01.561Z,71.06
2022-10-11T17:39:28.313Z,71.51
2022-10-11T17:41:55.109Z,71.91
2022-10-11T17:44:22.115Z,71.90
2022-10-11T17:46:49.190Z,72.65
2022-10-11T17:49:16.113Z,72.50
2022-10-11T17:51:43.529Z,72.17
2022-10-11T17:54:12.716Z,72.06
2022-10-11T17:56:41.383Z,71.98
2022-10-11T17:59:11.870Z,72.51
2022-10-11T18:01:38.659Z,72.37
2022-10-11T18:04:06.304Z,72.58
2022-10-11T18:06:38.740Z,73.36
2022-10-11T18:09:06.136Z,73.33
2022-10-11T18:11:33.111Z,73.78
2022-10-11T18:14:01.124Z,74.06
2022-10-11T18:16:30.137Z,74.25
2022-10-11T18:18:58.045Z,73.92
2022-10-11T18:21:29.981Z,73.76
2022-10-11T18:24:03.360Z,73.93
2022-10-11T18:26:30.834Z,73.75
2022-10-11T18:28:58.817Z,73.74
2022-10-11T18:31:29.273Z,74.21
2022-10-11T18:33:56.361Z,74.68
2022-10-11T18:36:26.862Z,74.89
2022-10-11T18:38:57.160Z,74.84
2022-10-11T18:41:30.721Z,74.48
2022-10-11T18:44:00.491Z,73.99
2022-10-11T18:46:27.940Z,74.45
2022-10-11T18:48:56.773Z,74.95
2022-10-11T18:51:42.416Z,75.03
2022-10-11T18:54:13.942Z,74.99
2022-10-11T18:56:44.558Z,75.47
2022-10-11T18:59:11.463Z,75.38
2022-10-11T19:01:41.473Z,75.24
2022-10-11T19:04:11.126Z,75.14
2022-10-11T19:06:41.211Z,75.22
2022-10-11T19:09:11.809Z,75.14
2022-10-11T19:11:55.343Z,75.21
2022-10-11T19:14:26.151Z,75.23
2022-10-11T19:16:54.166Z,75.13
2022-10-11T19:19:24.219Z,75.17
2022-10-11T19:21:52.178Z,75.18
2022-10-11T19:24:21.826Z,75.16
2022-10-11T19:26:50.475Z,75.32
2022-10-11T19:29:19.970Z,75.49
2022-10-11T19:31:49.626Z,75.38
2022-10-11T19:34:16.965Z,75.48
2022-10-11T19:36:44.086Z,75.75
2022-10-11T19:39:15.027Z,75.72
2022-10-11T19:41:42.162Z,76.08
2022-10-11T19:44:09.903Z,76.44
2022-10-11T19:46:53.183Z,76.55
2022-10-11T19:49:24.067Z,77.00
2022-10-11T19:51:52.080Z,76.40
2022-10-11T19:54:18.953Z,76.59
2022-10-11T19:56:45.786Z,76.60
2022-10-11T19:59:13.525Z,76.71
2022-10-11T20:01:41.424Z,77.13
2022-10-11T20:04:22.677Z,77.18
2022-10-11T20:06:58.117Z,76.92
2022-10-11T20:09:29.660Z,77.16
2022-10-11T20:11:57.828Z,77.33
2022-10-11T20:14:25.078Z,77.22
2022-10-11T20:16:52.224Z,77.23
2022-10-11T20:19:19.650Z,76.92
2022-10-11T20:21:47.384Z,76.76
2022-10-11T20:24:14.338Z,76.84
2022-10-11T20:26:41.462Z,76.96
2022-10-11T20:29:08.512Z,77.38
2022-10-11T20:31:38.922Z,77.36
2022-10-11T20:34:07.374Z,77.53
2022-10-11T20:36:36.263Z,78.15
2022-10-11T20:39:05.228Z,78.40
2022-10-11T20:41:37.078Z,78.72
2022-10-11T20:44:04.766Z,78.43
2022-10-11T20:46:34.563Z,78.30
2022-10-11T20:49:04.152Z,78.36
2022-10-11T20:51:33.368Z,78.17
2022-10-11T20:54:02.118Z,77.47
2022-10-11T20:56:30.055Z,77.60
2022-10-11T20:58:57.929Z,77.25
2022-10-11T21:01:27.816Z,77.22
2022-10-11T21:03:54.960Z,77.46
2022-10-11T21:06:21.747Z,77.58
2022-10-11T21:08:48.498Z,77.95
2022-10-11T21:11:15.230Z,78.32
2022-10-11T21:13:42.095Z,78.47
2022-10-11T21:16:12.428Z,77.70
2022-10-11T21:18:40.158Z,77.70
2022-10-11T21:21:09.097Z,77.46
2022-10-11T21:23:36.030Z,77.81
2022-10-11T21:26:04.353Z,78.06
2022-10-11T21:28:31.329Z,78.08
2022-10-11T21:31:15.292Z,78.22
2022-10-11T21:33:43.471Z,78.19
2022-10-11T21:36:13.609Z,78.05
2022-10-11T21:38:40.997Z,77.62
2022-10-11T21:41:11.713Z,77.77
2022-10-11T21:43:38.533Z,77.13
2022-10-11T21:46:15.860Z,77.12
2022-10-11T21:48:42.809Z,77.14
2022-10-11T21:51:30.066Z,77.48
2022-10-11T21:53:59.545Z,78.30
2022-10-11T21:56:27.536Z,78.64
2022-10-11T21:58:54.275Z,78.23
2022-10-11T22:01:21.460Z,78.79
2022-10-11T22:03:48.755Z,78.71
2022-10-11T22:06:16.454Z,78.36
2022-10-11T22:08:43.302Z,78.13
2022-10-11T22:11:10.848Z,78.29
2022-10-11T22:13:38.521Z,77.66
2022-10-11T22:16:06.863Z,77.45
2022-10-11T22:18:34.117Z,77.74
2022-10-11T22:21:04.787Z,77.90
2022-10-11T22:23:31.529Z,78.69
2022-10-11T22:26:08.175Z,79.08
2022-10-11T22:28:35.461Z,79.68
2022-10-11T22:31:02.294Z,80.26
2022-10-11T22:33:29.079Z,80.68
2022-10-11T22:35:59.452Z,80.74
2022-10-11T22:38:27.286Z,81.02
2022-10-11T22:40:54.979Z,80.85
2022-10-11T22:43:21.800Z,80.70
2022-10-11T22:45:48.588Z,80.56
2022-10-11T22:48:15.402Z,80.28
2022-10-11T22:50:42.384Z,79.81
2022-10-11T22:53:12.590Z,79.43
2022-10-11T22:55:39.919Z,78.95
2022-10-11T22:58:06.775Z,79.21
2022-10-11T23:00:34.617Z,78.61
2022-10-11T23:03:01.404Z,78.70
2022-10-11T23:05:28.246Z,78.50
2022-10-11T23:07:55.076Z,78.48
2022-10-11T23:10:21.892Z,77.99
2022-10-11T23:12:48.690Z,77.78
2022-10-11T23:15:15.528Z,77.95
2022-10-11T23:17:42.838Z,77.74
2022-10-11T23:20:10.173Z,77.89
2022-10-11T23:22:37.124Z,78.02
2022-10-11T23:25:05.150Z,78.17
2022-10-11T23:27:31.916Z,78.82
2022-10-11T23:29:58.771Z,79.10
2022-10-11T23:32:25.579Z,79.27
2022-10-11T23:34:52.330Z,79.20
2022-10-11T23:37:19.569Z,79.16
2022-10-11T23:39:46.390Z,78.42
2022-10-11T23:42:13.233Z,78.11
2022-10-11T23:44:40.010Z,77.71
2022-10-11T23:47:06.815Z,78.41
2022-10-11T23:49:33.645Z,78.92
2022-10-11T23:52:00.492Z,79.16
2022-10-11T23:54:27.326Z,78.77
2022-10-11T23:56:54.109Z,78.45
2022-10-11T23:59:20.915Z,78.89
